sensor_id;sensor_type;location;lat;lon;timestamp;pressure;altitude;pressure_sealevel;temperature;humidity
3096;BME280;1558;42.700;23.360;2023-11-22T00:00:27;94585.97;;;9.99;100.00
3096;BME280;1558;42.700;23.360;2023-11-22T00:02:55;94589.72;;;10.10;100.00
3096;BME280;1558;42.700;23.360;2023-11-22T00:05:23;94586.38;;;10.13;100.00
3096;BME280;1558;42.700;23.360;2023-11-22T00:07:57;94612.72;;;9.92;100.00
3096;BME280;1558;42.700;23.360;2023-11-22T00:10:26;94609.72;;;9.54;100.00
3096;BME280;1558;42.700;23.360;2023-11-22T00:12:56;94593.34;;;9.47;100.00
3096;BME280;1558;42.700;23.360;2023-11-22T00:15:29;94591.75;;;9.58;100.00
3096;BME280;1558;42.700;23.360;2023-11-22T00:18:01;94583.63;;;9.70;100.00
3096;BME280;1558;42.700;23.360;2023-11-22T00:20:31;94450.22;;;9.02;100.00
3096;BME280;1558;42.700;23.360;2023-11-22T00:23:06;94545.25;;;9.73;100.00
3096;BME280;1558;42.700;23.360;2023-11-22T00:25:37;94587.91;;;9.71;100.00
3096;BME280;1558;42.700;23.360;2023-11-22T00:28:05;94583.38;;;9.75;100.00
3096;BME280;1558;42.700;23.360;2023-11-22T00:30:34;94586.03;;;9.87;100.00
3096;BME280;1558;42.700;23.360;2023-11-22T00:33:02;94573.53;;;9.95;100.00
3096;BME280;1558;42.700;23.360;2023-11-22T00:35:31;94571.56;;;10.07;100.00
3096;BME280;1558;42.700;23.360;2023-11-22T00:38:00;94579.78;;;9.99;100.00
3096;BME280;1558;42.700;23.360;2023-11-22T00:40:30;94558.34;;;9.75;100.00
3096;BME280;1558;42.700;23.360;2023-11-22T00:42:58;94620.97;;;9.99;100.00
3096;BME280;1558;42.700;23.360;2023-11-22T00:45:26;94593.84;;;9.92;100.00
3096;BME280;1558;42.700;23.360;2023-11-22T00:47:54;94594.09;;;9.87;100.00
3096;BME280;1558;42.700;23.360;2023-11-22T00:50:24;94585.03;;;10.07;100.00
3096;BME280;1558;42.700;23.360;2023-11-22T00:52:55;94578.72;;;10.15;100.00
3096;BME280;1558;42.700;23.360;2023-11-22T00:55:23;94574.03;;;10.12;100.00
3096;BME280;1558;42.700;23.360;2023-11-22T00:57:54;94577.00;;;10.23;100.00
3096;BME280;1558;42.700;23.360;2023-11-22T01:00:32;94414.44;;;9.13;100.00
3096;BME280;1558;42.700;23.360;2023-11-22T01:03:00;94553.38;;;10.04;100.00
3096;BME280;1558;42.700;23.360;2023-11-22T01:05:32;94559.16;;;10.18;100.00
3096;BME280;1558;42.700;23.360;2023-11-22T01:08:00;94562.97;;;10.17;100.00
3096;BME280;1558;42.700;23.360;2023-11-22T01:10:28;94545.50;;;10.11;100.00
3096;BME280;1558;42.700;23.360;2023-11-22T01:12:57;94515.56;;;9.85;100.00
3096;BME280;1558;42.700;23.360;2023-11-22T01:15:26;94560.22;;;10.14;100.00
3096;BME280;1558;42.700;23.360;2023-11-22T01:17:54;94557.97;;;10.32;100.00
3096;BME280;1558;42.700;23.360;2023-11-22T01:20:22;94555.28;;;10.32;100.00
3096;BME280;1558;42.700;23.360;2023-11-22T01:22:50;94553.78;;;10.34;100.00
3096;BME280;1558;42.700;23.360;2023-11-22T01:25:18;94550.31;;;10.49;100.00
3096;BME280;1558;42.700;23.360;2023-11-22T01:27:46;94550.56;;;10.60;100.00
3096;BME280;1558;42.700;23.360;2023-11-22T01:30:15;94511.25;;;10.28;100.00
3096;BME280;1558;42.700;23.360;2023-11-22T01:32:45;94554.13;;;10.64;100.00
3096;BME280;1558;42.700;23.360;2023-11-22T01:35:13;94524.66;;;10.40;100.00
3096;BME280;1558;42.700;23.360;2023-11-22T01:37:42;94540.19;;;10.46;100.00
3096;BME280;1558;42.700;23.360;2023-11-22T01:40:11;94520.91;;;10.44;100.00
3096;BME280;1558;42.700;23.360;2023-11-22T01:42:39;94537.94;;;10.64;100.00
3096;BME280;1558;42.700;23.360;2023-11-22T01:45:08;94523.03;;;10.70;100.00
3096;BME280;1558;42.700;23.360;2023-11-22T01:47:38;94521.06;;;10.67;100.00
3096;BME280;1558;42.700;23.360;2023-11-22T01:50:08;94505.22;;;10.65;100.00
3096;BME280;1558;42.700;23.360;2023-11-22T01:52:37;94492.09;;;10.64;100.00
3096;BME280;1558;42.700;23.360;2023-11-22T01:55:06;94526.47;;;10.67;99.37
3096;BME280;1558;42.700;23.360;2023-11-22T01:57:35;94526.09;;;10.68;99.71
3096;BME280;1558;42.700;23.360;2023-11-22T02:00:05;94533.16;;;10.42;99.70
3096;BME280;1558;42.700;23.360;2023-11-22T02:02:34;94535.00;;;10.38;100.00
3096;BME280;1558;42.700;23.360;2023-11-22T02:05:04;94529.25;;;10.39;100.00
3096;BME280;1558;42.700;23.360;2023-11-22T02:07:34;94496.50;;;10.22;100.00
3096;BME280;1558;42.700;23.360;2023-11-22T02:10:02;94517.88;;;10.46;100.00
3096;BME280;1558;42.700;23.360;2023-11-22T02:12:36;94519.44;;;10.47;100.00
3096;BME280;1558;42.700;23.360;2023-11-22T02:15:08;94514.28;;;10.42;100.00
3096;BME280;1558;42.700;23.360;2023-11-22T02:17:36;94524.66;;;10.40;100.00
3096;BME280;1558;42.700;23.360;2023-11-22T02:20:08;94515.28;;;10.34;100.00
3096;BME280;1558;42.700;23.360;2023-11-22T02:22:44;94341.84;;;9.29;100.00
3096;BME280;1558;42.700;23.360;2023-11-22T02:25:14;94511.53;;;10.38;100.00
3096;BME280;1558;42.700;23.360;2023-11-22T02:27:43;94458.91;;;9.97;100.00
3096;BME280;1558;42.700;23.360;2023-11-22T02:30:11;94425.81;;;9.81;100.00
3096;BME280;1558;42.700;23.360;2023-11-22T02:32:40;94436.22;;;9.98;100.00
3096;BME280;1558;42.700;23.360;2023-11-22T02:35:08;94524.66;;;10.40;100.00
3096;BME280;1558;42.700;23.360;2023-11-22T02:37:36;94503.59;;;10.30;99.43
3096;BME280;1558;42.700;23.360;2023-11-22T02:40:06;94467.63;;;9.91;99.32
3096;BME280;1558;42.700;23.360;2023-11-22T02:42:39;94522.66;;;10.21;100.00
3096;BME280;1558;42.700;23.360;2023-11-22T02:45:08;94503.19;;;10.12;100.00
3096;BME280;1558;42.700;23.360;2023-11-22T02:47:35;94465.00;;;9.94;99.89
3096;BME280;1558;42.700;23.360;2023-11-22T02:50:04;94487.59;;;10.05;99.88
3096;BME280;1558;42.700;23.360;2023-11-22T02:52:33;94519.78;;;10.30;99.79
3096;BME280;1558;42.700;23.360;2023-11-22T02:55:01;94513.97;;;10.43;99.52
3096;BME280;1558;42.700;23.360;2023-11-22T02:57:30;94498.94;;;10.27;99.25
3096;BME280;1558;42.700;23.360;2023-11-22T02:59:59;94530.03;;;10.40;99.45
3096;BME280;1558;42.700;23.360;2023-11-22T03:02:28;94521.97;;;10.40;99.62
3096;BME280;1558;42.700;23.360;2023-11-22T03:04:57;94526.22;;;10.41;99.41
3096;BME280;1558;42.700;23.360;2023-11-22T03:07:26;94500.75;;;10.38;99.01
3096;BME280;1558;42.700;23.360;2023-11-22T03:09:54;94512.50;;;10.46;98.80
3096;BME280;1558;42.700;23.360;2023-11-22T03:12:22;94519.63;;;10.38;98.72
3096;BME280;1558;42.700;23.360;2023-11-22T03:14:50;94525.94;;;10.30;99.12
3096;BME280;1558;42.700;23.360;2023-11-22T03:17:22;94528.56;;;10.27;99.46
3096;BME280;1558;42.700;23.360;2023-11-22T03:19:50;94532.56;;;10.33;99.33
3096;BME280;1558;42.700;23.360;2023-11-22T03:22:18;94526.41;;;10.48;99.33
3096;BME280;1558;42.700;23.360;2023-11-22T03:24:46;94528.50;;;10.39;99.70
3096;BME280;1558;42.700;23.360;2023-11-22T03:27:14;94509.97;;;10.22;99.59
3096;BME280;1558;42.700;23.360;2023-11-22T03:29:43;94543.94;;;10.42;99.56
3096;BME280;1558;42.700;23.360;2023-11-22T03:32:11;94543.09;;;10.38;99.52
3096;BME280;1558;42.700;23.360;2023-11-22T03:34:41;94537.34;;;10.39;99.59
3096;BME280;1558;42.700;23.360;2023-11-22T03:37:09;94535.53;;;10.43;99.58
3096;BME280;1558;42.700;23.360;2023-11-22T03:39:37;94479.84;;;10.04;99.20
3096;BME280;1558;42.700;23.360;2023-11-22T03:42:06;94529.97;;;10.36;99.62
3096;BME280;1558;42.700;23.360;2023-11-22T03:44:34;94524.75;;;10.43;99.83
3096;BME280;1558;42.700;23.360;2023-11-22T03:47:02;94526.22;;;10.41;99.90
3096;BME280;1558;42.700;23.360;2023-11-22T03:49:30;94520.84;;;10.41;99.98
3096;BME280;1558;42.700;23.360;2023-11-22T03:52:01;94506.75;;;10.32;100.00
3096;BME280;1558;42.700;23.360;2023-11-22T03:54:29;94527.19;;;10.48;99.84
3096;BME280;1558;42.700;23.360;2023-11-22T03:56:59;94520.91;;;10.44;99.63
3096;BME280;1558;42.700;23.360;2023-11-22T03:59:44;94516.47;;;10.20;100.00
3096;BME280;1558;42.700;23.360;2023-11-22T04:02:13;94518.91;;;10.10;100.00
3096;BME280;1558;42.700;23.360;2023-11-22T04:04:41;94529.09;;;10.16;100.00
3096;BME280;1558;42.700;23.360;2023-11-22T04:07:10;94535.34;;;10.20;100.00
3096;BME280;1558;42.700;23.360;2023-11-22T04:09:38;94533.88;;;10.39;100.00
3096;BME280;1558;42.700;23.360;2023-11-22T04:12:06;94546.22;;;10.40;100.00
3096;BME280;1558;42.700;23.360;2023-11-22T04:14:35;94549.09;;;10.31;100.00
3096;BME280;1558;42.700;23.360;2023-11-22T04:17:03;94550.91;;;10.27;100.00
3096;BME280;1558;42.700;23.360;2023-11-22T04:19:33;94559.06;;;10.15;100.00
3096;BME280;1558;42.700;23.360;2023-11-22T04:22:01;94552.91;;;10.30;100.00
3096;BME280;1558;42.700;23.360;2023-11-22T04:24:31;94563.44;;;10.19;100.00
3096;BME280;1558;42.700;23.360;2023-11-22T04:26:59;94573.25;;;10.28;100.00
3096;BME280;1558;42.700;23.360;2023-11-22T04:29:29;94575.00;;;10.36;100.00
3096;BME280;1558;42.700;23.360;2023-11-22T04:31:57;94564.38;;;10.11;100.00
3096;BME280;1558;42.700;23.360;2023-11-22T04:34:26;94573.06;;;10.20;100.00
3096;BME280;1558;42.700;23.360;2023-11-22T04:36:54;94526.94;;;9.79;100.00
3096;BME280;1558;42.700;23.360;2023-11-22T04:39:23;94587.94;;;10.14;100.00
3096;BME280;1558;42.700;23.360;2023-11-22T04:41:53;94586.91;;;10.19;100.00
3096;BME280;1558;42.700;23.360;2023-11-22T04:44:21;94577.78;;;10.24;100.00
3096;BME280;1558;42.700;23.360;2023-11-22T04:46:49;94577.59;;;10.16;100.00
3096;BME280;1558;42.700;23.360;2023-11-22T04:49:18;94578.03;;;10.18;100.00
3096;BME280;1558;42.700;23.360;2023-11-22T04:51:46;94571.97;;;10.22;100.00
3096;BME280;1558;42.700;23.360;2023-11-22T04:54:14;94589.00;;;10.26;100.00
3096;BME280;1558;42.700;23.360;2023-11-22T04:56:42;94593.00;;;10.47;100.00
3096;BME280;1558;42.700;23.360;2023-11-22T04:59:12;94608.22;;;10.40;100.00
3096;BME280;1558;42.700;23.360;2023-11-22T05:01:41;94611.94;;;10.35;100.00
3096;BME280;1558;42.700;23.360;2023-11-22T05:04:10;94628.66;;;10.41;100.00
3096;BME280;1558;42.700;23.360;2023-11-22T05:06:37;94619.44;;;10.42;100.00
3096;BME280;1558;42.700;23.360;2023-11-22T05:09:05;94579.44;;;10.12;100.00
3096;BME280;1558;42.700;23.360;2023-11-22T05:11:33;94630.66;;;10.44;100.00
3096;BME280;1558;42.700;23.360;2023-11-22T05:14:01;94637.94;;;10.28;100.00
3096;BME280;1558;42.700;23.360;2023-11-22T05:16:31;94600.84;;;10.09;100.00
3096;BME280;1558;42.700;23.360;2023-11-22T05:19:00;94624.72;;;10.23;100.00
3096;BME280;1558;42.700;23.360;2023-11-22T05:21:29;94645.97;;;10.40;100.00
3096;BME280;1558;42.700;23.360;2023-11-22T05:23:57;94626.41;;;10.43;100.00
3096;BME280;1558;42.700;23.360;2023-11-22T05:26:25;94651.09;;;10.60;100.00
3096;BME280;1558;42.700;23.360;2023-11-22T05:28:53;94648.31;;;10.57;100.00
3096;BME280;1558;42.700;23.360;2023-11-22T05:31:22;94651.47;;;10.59;100.00
3096;BME280;1558;42.700;23.360;2023-11-22T05:33:52;94658.94;;;10.50;100.00
3096;BME280;1558;42.700;23.360;2023-11-22T05:36:20;94663.03;;;10.59;100.00
3096;BME280;1558;42.700;23.360;2023-11-22T05:38:51;94667.47;;;10.67;100.00
3096;BME280;1558;42.700;23.360;2023-11-22T05:41:19;94668.97;;;10.65;100.00
3096;BME280;1558;42.700;23.360;2023-11-22T05:43:48;94682.63;;;10.72;100.00
3096;BME280;1558;42.700;23.360;2023-11-22T05:46:16;94678.59;;;10.66;100.00
3096;BME280;1558;42.700;23.360;2023-11-22T05:48:48;94689.66;;;10.61;100.00
3096;BME280;1558;42.700;23.360;2023-11-22T05:51:19;94690.16;;;10.51;100.00
3096;BME280;1558;42.700;23.360;2023-11-22T05:53:47;94683.06;;;10.74;100.00
3096;BME280;1558;42.700;23.360;2023-11-22T05:56:16;94637.78;;;10.52;100.00
3096;BME280;1558;42.700;23.360;2023-11-22T05:58:44;94692.88;;;10.82;100.00
3096;BME280;1558;42.700;23.360;2023-11-22T06:01:12;94695.69;;;10.85;100.00
3096;BME280;1558;42.700;23.360;2023-11-22T06:03:40;94695.31;;;10.87;100.00
3096;BME280;1558;42.700;23.360;2023-11-22T06:06:09;94701.69;;;10.79;100.00
3096;BME280;1558;42.700;23.360;2023-11-22T06:08:39;94704.63;;;10.89;100.00
3096;BME280;1558;42.700;23.360;2023-11-22T06:11:07;94706.97;;;10.91;100.00
3096;BME280;1558;42.700;23.360;2023-11-22T06:13:35;94717.00;;;10.91;100.00
3096;BME280;1558;42.700;23.360;2023-11-22T06:16:03;94715.53;;;10.93;100.00
3096;BME280;1558;42.700;23.360;2023-11-22T06:18:33;94717.78;;;10.91;100.00
3096;BME280;1558;42.700;23.360;2023-11-22T06:21:07;94727.97;;;10.98;100.00
3096;BME280;1558;42.700;23.360;2023-11-22T06:23:35;94727.25;;;11.01;100.00
3096;BME280;1558;42.700;23.360;2023-11-22T06:26:05;94735.81;;;11.03;100.00
3096;BME280;1558;42.700;23.360;2023-11-22T06:28:33;94722.66;;;11.01;100.00
3096;BME280;1558;42.700;23.360;2023-11-22T06:31:02;94747.13;;;11.08;100.00
3096;BME280;1558;42.700;23.360;2023-11-22T06:33:30;94743.84;;;11.15;100.00
3096;BME280;1558;42.700;23.360;2023-11-22T06:35:58;94738.00;;;11.28;100.00
3096;BME280;1558;42.700;23.360;2023-11-22T06:38:27;94733.38;;;11.29;100.00
3096;BME280;1558;42.700;23.360;2023-11-22T06:40:56;94739.66;;;11.33;100.00
3096;BME280;1558;42.700;23.360;2023-11-22T06:43:25;94684.44;;;10.99;100.00
3096;BME280;1558;42.700;23.360;2023-11-22T06:45:53;94743.72;;;11.27;100.00
3096;BME280;1558;42.700;23.360;2023-11-22T06:48:22;94752.09;;;11.22;100.00
3096;BME280;1558;42.700;23.360;2023-11-22T06:50:51;94758.44;;;11.14;100.00
3096;BME280;1558;42.700;23.360;2023-11-22T06:53:19;94767.78;;;11.16;100.00
3096;BME280;1558;42.700;23.360;2023-11-22T06:55:47;94766.53;;;11.14;100.00
3096;BME280;1558;42.700;23.360;2023-11-22T06:58:17;94765.16;;;11.04;100.00
3096;BME280;1558;42.700;23.360;2023-11-22T07:00:47;94766.63;;;11.17;100.00
3096;BME280;1558;42.700;23.360;2023-11-22T07:03:16;94763.34;;;11.24;100.00
3096;BME280;1558;42.700;23.360;2023-11-22T07:05:44;94767.94;;;11.23;100.00
3096;BME280;1558;42.700;23.360;2023-11-22T07:08:12;94769.88;;;11.38;100.00
3096;BME280;1558;42.700;23.360;2023-11-22T07:10:47;94761.06;;;11.41;100.00
3096;BME280;1558;42.700;23.360;2023-11-22T07:13:18;94772.28;;;11.43;100.00
3096;BME280;1558;42.700;23.360;2023-11-22T07:15:50;94781.19;;;11.44;100.00
3096;BME280;1558;42.700;23.360;2023-11-22T07:18:20;94787.56;;;11.36;100.00
3096;BME280;1558;42.700;23.360;2023-11-22T07:20:51;94788.31;;;11.36;100.00
3096;BME280;1558;42.700;23.360;2023-11-22T07:23:25;94790.50;;;11.46;100.00
3096;BME280;1558;42.700;23.360;2023-11-22T07:25:57;94748.34;;;11.26;100.00
3096;BME280;1558;42.700;23.360;2023-11-22T07:28:25;94789.13;;;11.52;100.00
3096;BME280;1558;42.700;23.360;2023-11-22T07:30:57;94766.47;;;11.41;100.00
3096;BME280;1558;42.700;23.360;2023-11-22T07:33:25;94788.06;;;11.41;100.00
3096;BME280;1558;42.700;23.360;2023-11-22T07:35:55;94778.47;;;11.44;100.00
3096;BME280;1558;42.700;23.360;2023-11-22T07:38:24;94798.28;;;11.48;100.00
3096;BME280;1558;42.700;23.360;2023-11-22T07:40:57;94745.50;;;11.19;100.00
3096;BME280;1558;42.700;23.360;2023-11-22T07:43:26;94796.50;;;11.55;100.00
3096;BME280;1558;42.700;23.360;2023-11-22T07:46:04;94801.22;;;11.58;100.00
3096;BME280;1558;42.700;23.360;2023-11-22T07:48:34;94805.06;;;11.57;100.00
3096;BME280;1558;42.700;23.360;2023-11-22T07:51:06;94793.13;;;11.43;100.00
3096;BME280;1558;42.700;23.360;2023-11-22T07:53:35;94800.41;;;11.58;100.00
3096;BME280;1558;42.700;23.360;2023-11-22T07:56:07;94778.31;;;11.52;100.00
3096;BME280;1558;42.700;23.360;2023-11-22T07:58:36;94808.63;;;11.62;100.00
3096;BME280;1558;42.700;23.360;2023-11-22T08:01:09;94817.84;;;11.61;100.00
3096;BME280;1558;42.700;23.360;2023-11-22T08:03:45;94819.84;;;11.64;100.00
3096;BME280;1558;42.700;23.360;2023-11-22T08:06:27;94810.53;;;11.61;100.00
3096;BME280;1558;42.700;23.360;2023-11-22T08:08:57;94811.69;;;11.76;100.00
3096;BME280;1558;42.700;23.360;2023-11-22T08:11:28;94807.84;;;11.77;100.00
3096;BME280;1558;42.700;23.360;2023-11-22T08:13:59;94789.91;;;11.69;100.00
3096;BME280;1558;42.700;23.360;2023-11-22T08:16:29;94794.78;;;11.79;100.00
3096;BME280;1558;42.700;23.360;2023-11-22T08:18:58;94803.16;;;11.74;100.00
3096;BME280;1558;42.700;23.360;2023-11-22T08:21:27;94810.28;;;11.82;100.00
3096;BME280;1558;42.700;23.360;2023-11-22T08:23:57;94819.38;;;11.74;100.00
3096;BME280;1558;42.700;23.360;2023-11-22T08:26:27;94817.72;;;11.69;100.00
3096;BME280;1558;42.700;23.360;2023-11-22T08:28:55;94828.16;;;11.71;100.00
3096;BME280;1558;42.700;23.360;2023-11-22T08:31:23;94833.38;;;11.79;100.00
3096;BME280;1558;42.700;23.360;2023-11-22T08:33:53;94827.72;;;11.84;100.00
3096;BME280;1558;42.700;23.360;2023-11-22T08:36:21;94797.03;;;11.61;100.00
3096;BME280;1558;42.700;23.360;2023-11-22T08:38:53;94834.16;;;11.80;100.00
3096;BME280;1558;42.700;23.360;2023-11-22T08:41:22;94828.66;;;11.92;100.00
3096;BME280;1558;42.700;23.360;2023-11-22T08:43:50;94833.72;;;11.93;100.00
3096;BME280;1558;42.700;23.360;2023-11-22T08:46:18;94840.63;;;11.91;100.00
3096;BME280;1558;42.700;23.360;2023-11-22T08:48:48;94849.94;;;11.93;100.00
3096;BME280;1558;42.700;23.360;2023-11-22T08:51:17;94822.06;;;11.74;100.00
3096;BME280;1558;42.700;23.360;2023-11-22T08:53:46;94840.47;;;11.84;100.00
3096;BME280;1558;42.700;23.360;2023-11-22T08:56:14;94783.72;;;11.52;100.00
3096;BME280;1558;42.700;23.360;2023-11-22T08:58:43;94834.75;;;11.89;100.00
3096;BME280;1558;42.700;23.360;2023-11-22T09:01:13;94833.22;;;11.88;100.00
3096;BME280;1558;42.700;23.360;2023-11-22T09:03:43;94837.03;;;12.02;100.00
3096;BME280;1558;42.700;23.360;2023-11-22T09:06:11;94832.84;;;12.05;100.00
3096;BME280;1558;42.700;23.360;2023-11-22T09:08:42;94826.91;;;11.99;100.00
3096;BME280;1558;42.700;23.360;2023-11-22T09:11:10;94857.06;;;12.01;100.00
3096;BME280;1558;42.700;23.360;2023-11-22T09:13:40;94844.25;;;12.14;100.00
3096;BME280;1558;42.700;23.360;2023-11-22T09:16:08;94848.88;;;12.13;100.00
3096;BME280;1558;42.700;23.360;2023-11-22T09:18:38;94851.84;;;12.08;100.00
3096;BME280;1558;42.700;23.360;2023-11-22T09:21:06;94792.00;;;11.60;100.00
3096;BME280;1558;42.700;23.360;2023-11-22T09:23:50;94874.25;;;12.09;100.00
3096;BME280;1558;42.700;23.360;2023-11-22T09:26:23;94871.66;;;11.97;100.00
3096;BME280;1558;42.700;23.360;2023-11-22T09:28:52;94869.81;;;12.01;100.00
3096;BME280;1558;42.700;23.360;2023-11-22T09:31:20;94871.75;;;12.00;100.00
3096;BME280;1558;42.700;23.360;2023-11-22T09:33:51;94826.31;;;11.75;100.00
3096;BME280;1558;42.700;23.360;2023-11-22T09:36:20;94867.88;;;12.01;100.00
3096;BME280;1558;42.700;23.360;2023-11-22T09:38:50;94874.09;;;12.02;100.00
3096;BME280;1558;42.700;23.360;2023-11-22T09:41:18;94862.91;;;12.03;100.00
3096;BME280;1558;42.700;23.360;2023-11-22T09:43:49;94866.94;;;11.94;100.00
3096;BME280;1558;42.700;23.360;2023-11-22T09:46:21;94876.53;;;12.07;100.00
3096;BME280;1558;42.700;23.360;2023-11-22T09:48:53;94863.16;;;12.14;100.00
3096;BME280;1558;42.700;23.360;2023-11-22T09:51:27;94863.81;;;12.27;100.00
3096;BME280;1558;42.700;23.360;2023-11-22T09:54:04;94848.16;;;12.16;100.00
3096;BME280;1558;42.700;23.360;2023-11-22T09:56:35;94856.66;;;12.34;100.00
3096;BME280;1558;42.700;23.360;2023-11-22T09:59:12;94860.25;;;12.38;100.00
3096;BME280;1558;42.700;23.360;2023-11-22T10:01:41;94797.84;;;12.12;100.00
3096;BME280;1558;42.700;23.360;2023-11-22T10:04:13;94858.78;;;12.60;100.00
3096;BME280;1558;42.700;23.360;2023-11-22T10:06:43;94865.19;;;12.71;100.00
3096;BME280;1558;42.700;23.360;2023-11-22T10:09:17;94740.47;;;11.84;100.00
3096;BME280;1558;42.700;23.360;2023-11-22T10:11:50;94864.16;;;12.41;100.00
3096;BME280;1558;42.700;23.360;2023-11-22T10:14:22;94837.31;;;12.51;100.00
3096;BME280;1558;42.700;23.360;2023-11-22T10:16:59;94860.56;;;12.71;100.00
3096;BME280;1558;42.700;23.360;2023-11-22T10:19:28;94850.22;;;12.77;100.00
3096;BME280;1558;42.700;23.360;2023-11-22T10:22:03;94819.09;;;12.48;100.00
3096;BME280;1558;42.700;23.360;2023-11-22T10:24:36;94855.69;;;12.42;100.00
3096;BME280;1558;42.700;23.360;2023-11-22T10:27:04;94854.78;;;12.54;100.00
3096;BME280;1558;42.700;23.360;2023-11-22T10:29:37;94795.88;;;12.28;100.00
3096;BME280;1558;42.700;23.360;2023-11-22T10:32:06;94857.78;;;12.68;100.00
3096;BME280;1558;42.700;23.360;2023-11-22T10:34:39;94738.22;;;12.05;100.00
3096;BME280;1558;42.700;23.360;2023-11-22T10:37:09;94822.22;;;12.69;100.00
3096;BME280;1558;42.700;23.360;2023-11-22T10:39:39;94837.91;;;12.79;100.00
3096;BME280;1558;42.700;23.360;2023-11-22T10:42:10;94846.03;;;12.99;100.00
3096;BME280;1558;42.700;23.360;2023-11-22T10:44:41;94848.88;;;12.86;99.64
3096;BME280;1558;42.700;23.360;2023-11-22T10:47:14;94854.84;;;12.96;99.97
3096;BME280;1558;42.700;23.360;2023-11-22T10:49:44;94867.53;;;12.91;99.20
3096;BME280;1558;42.700;23.360;2023-11-22T10:52:16;94873.59;;;12.85;99.06
3096;BME280;1558;42.700;23.360;2023-11-22T10:54:49;94865.47;;;13.04;98.93
3096;BME280;1558;42.700;23.360;2023-11-22T10:57:23;94899.53;;;13.05;98.25
3096;BME280;1558;42.700;23.360;2023-11-22T10:59:55;94862.34;;;13.02;98.90
3096;BME280;1558;42.700;23.360;2023-11-22T11:02:28;94860.88;;;13.24;98.76
3096;BME280;1558;42.700;23.360;2023-11-22T11:05:02;94853.72;;;13.35;98.15
3096;BME280;1558;42.700;23.360;2023-11-22T11:07:40;94858.50;;;13.64;97.50
3096;BME280;1558;42.700;23.360;2023-11-22T11:10:14;94857.38;;;13.46;97.09
3096;BME280;1558;42.700;23.360;2023-11-22T11:12:52;94861.81;;;13.54;97.08
3096;BME280;1558;42.700;23.360;2023-11-22T11:15:43;94861.44;;;13.55;96.16
3096;BME280;1558;42.700;23.360;2023-11-22T11:18:15;94745.72;;;12.69;96.02
3096;BME280;1558;42.700;23.360;2023-11-22T11:20:52;94864.16;;;13.55;96.05
3096;BME280;1558;42.700;23.360;2023-11-22T11:23:22;94843.44;;;13.44;96.13
3096;BME280;1558;42.700;23.360;2023-11-22T11:25:55;94863.63;;;13.27;96.86
3096;BME280;1558;42.700;23.360;2023-11-22T11:28:24;94857.63;;;13.37;96.22
3096;BME280;1558;42.700;23.360;2023-11-22T11:30:58;94865.97;;;13.29;97.02
3096;BME280;1558;42.700;23.360;2023-11-22T11:33:27;94856.41;;;13.35;97.57
3096;BME280;1558;42.700;23.360;2023-11-22T11:35:57;94809.91;;;13.10;97.27
3096;BME280;1558;42.700;23.360;2023-11-22T11:38:31;94859.47;;;13.52;96.64
3096;BME280;1558;42.700;23.360;2023-11-22T11:41:10;94852.00;;;13.69;95.91
3096;BME280;1558;42.700;23.360;2023-11-22T11:46:17;94852.91;;;13.76;94.92
3096;BME280;1558;42.700;23.360;2023-11-22T11:48:48;94870.59;;;13.70;95.16
3096;BME280;1558;42.700;23.360;2023-11-22T11:51:18;94834.00;;;13.57;95.81
3096;BME280;1558;42.700;23.360;2023-11-22T11:53:47;94830.13;;;13.58;95.32
3096;BME280;1558;42.700;23.360;2023-11-22T11:56:17;94756.56;;;13.11;95.15
3096;BME280;1558;42.700;23.360;2023-11-22T11:58:56;94818.72;;;13.72;95.10
3096;BME280;1558;42.700;23.360;2023-11-22T12:01:28;94862.13;;;13.98;94.72
3096;BME280;1558;42.700;23.360;2023-11-22T12:04:01;94871.56;;;13.81;94.76
3096;BME280;1558;42.700;23.360;2023-11-22T12:06:31;94867.72;;;13.82;95.06
3096;BME280;1558;42.700;23.360;2023-11-22T12:09:04;94862.22;;;13.79;95.49
3096;BME280;1558;42.700;23.360;2023-11-22T12:11:36;94848.50;;;13.68;95.18
3096;BME280;1558;42.700;23.360;2023-11-22T12:14:07;94882.41;;;13.81;95.46
3096;BME280;1558;42.700;23.360;2023-11-22T12:16:35;94860.13;;;13.69;95.98
3096;BME280;1558;42.700;23.360;2023-11-22T12:19:05;94885.72;;;13.94;95.97
3096;BME280;1558;42.700;23.360;2023-11-22T12:21:35;94895.38;;;13.69;95.82
3096;BME280;1558;42.700;23.360;2023-11-22T12:24:09;94894.03;;;13.59;96.67
3096;BME280;1558;42.700;23.360;2023-11-22T12:26:46;94893.75;;;13.64;97.40
3096;BME280;1558;42.700;23.360;2023-11-22T12:29:15;94762.63;;;12.85;96.74
3096;BME280;1558;42.700;23.360;2023-11-22T12:31:49;94887.66;;;13.71;97.05
3096;BME280;1558;42.700;23.360;2023-11-22T12:34:23;94890.00;;;13.72;97.36
3096;BME280;1558;42.700;23.360;2023-11-22T12:36:56;94893.91;;;13.75;97.95
3096;BME280;1558;42.700;23.360;2023-11-22T12:39:25;94898.72;;;13.85;97.93
3096;BME280;1558;42.700;23.360;2023-11-22T12:41:55;94908.53;;;13.70;97.53
3096;BME280;1558;42.700;23.360;2023-11-22T12:44:47;94884.44;;;13.65;97.52
3096;BME280;1558;42.700;23.360;2023-11-22T12:47:31;94902.00;;;13.71;98.14
3096;BME280;1558;42.700;23.360;2023-11-22T12:50:06;94917.47;;;13.71;98.86
3096;BME280;1558;42.700;23.360;2023-11-22T12:52:35;94914.69;;;13.67;98.55
3096;BME280;1558;42.700;23.360;2023-11-22T12:55:09;94886.22;;;13.35;99.35
3096;BME280;1558;42.700;23.360;2023-11-22T12:57:42;94924.19;;;13.57;99.57
3096;BME280;1558;42.700;23.360;2023-11-22T13:00:14;94936.19;;;13.56;99.98
3096;BME280;1558;42.700;23.360;2023-11-22T13:02:44;94925.47;;;13.64;99.58
3096;BME280;1558;42.700;23.360;2023-11-22T13:05:31;94926.19;;;13.61;98.99
3096;BME280;1558;42.700;23.360;2023-11-22T13:08:00;94927.94;;;13.72;99.04
3096;BME280;1558;42.700;23.360;2023-11-22T13:10:29;94939.78;;;13.83;98.51
3096;BME280;1558;42.700;23.360;2023-11-22T13:13:05;94930.59;;;13.91;98.20
3096;BME280;1558;42.700;23.360;2023-11-22T13:15:39;94935.56;;;13.86;97.84
3096;BME280;1558;42.700;23.360;2023-11-22T13:18:11;94904.59;;;13.45;97.49
3096;BME280;1558;42.700;23.360;2023-11-22T13:20:42;94949.31;;;13.77;97.67
3096;BME280;1558;42.700;23.360;2023-11-22T13:23:11;94943.91;;;13.77;98.10